Tecumseh — WTW9257 — position and weather

sailwx.info

Track history (hours):
 
Tides and Currents Weather Stations Pressure Air Temp Water Temp Dewpoint Dewpoint Depression Visibility Wind Speed Wind Dir Waves Ship Positions

Tecumseh

Owner: Sause Bros. Inc., COOS BAY, OR. More information available from US FCC via Universal Licensing System and Coast Guard Vessel Documentation Center.

Last reported at 2017-Jun-24 13:30 UTC. Time now 2017-Jun-24 14:01 UTC.
Position N 35°49' W 122°13'.

Length 90 m; draft 4.8 m.

Type: Tow > 200 m length. MMSI: 367133160.

Date/timePositionNaut miles runAvg speedWind from/ knotsBaromVisibWave heightAir tempDewpointWater temp
2017-Jun-24 13:30N 35°49' W 122°13'4 8.3
2017-Jun-24 13:00N 35°53' W 122°15'4 8.5
2017-Jun-24 12:30N 35°57' W 122°17'4 8.4
2017-Jun-24 12:00N 36°00' W 122°20'4 8.1
2017-Jun-24 11:30N 36°04' W 122°22'4 8.1
2017-Jun-24 11:00N 36°08' W 122°25'4 8.1
2017-Jun-24 10:30N 36°11' W 122°27'4 8.0
2017-Jun-24 10:00N 36°15' W 122°29'4 7.9
2017-Jun-24 09:30N 36°18' W 122°32'6 7.9
2017-Jun-24 08:46N 36°24' W 122°35'2 7.7
2017-Jun-24 08:30N 36°25' W 122°36'4 7.8
2017-Jun-24 08:00N 36°29' W 122°38'4 7.7
2017-Jun-24 07:30N 36°33' W 122°40'4 7.8
2017-Jun-24 07:00N 36°36' W 122°42'4 7.8
2017-Jun-24 06:30N 36°40' W 122°44'4 7.8
2017-Jun-24 06:00N 36°43' W 122°46'4 7.9
2017-Jun-24 05:30N 36°47' W 122°48'4 8.0
2017-Jun-24 05:00N 36°50' W 122°50'4 7.6
2017-Jun-24 04:30N 36°54' W 122°52'4 7.3
2017-Jun-24 04:00N 36°57' W 122°54'4 7.3
2017-Jun-24 03:30N 37°00' W 122°56'4 7.1
2017-Jun-24 03:00N 37°04' W 122°57'4 7.5
2017-Jun-24 02:30N 37°07' W 122°59'4 7.6
2017-Jun-24 02:00N 37°11' W 123°01'4 8.1
2017-Jun-24 01:30N 37°15' W 123°02'4 8.4
2017-Jun-24 01:00N 37°19' W 123°03'4 8.6
2017-Jun-24 00:30N 37°23' W 123°04'4 8.4
2017-Jun-24 00:00N 37°27' W 123°04'4 8.5
2017-Jun-23 23:30N 37°31' W 123°04'4 7.2
2017-Jun-23 22:59N 37°35' W 123°03'4 7.9
2017-Jun-23 22:26N 37°37' W 122°58'3 7.6
2017-Jun-23 22:00N 37°39' W 122°55'4 7.9
2017-Jun-23 21:30N 37°41' W 122°50'4 7.9
2017-Jun-23 21:00N 37°43' W 122°46'4 7.7
2017-Jun-23 20:30N 37°44' W 122°41'4 7.5
2017-Jun-23 20:00N 37°46' W 122°37'3 7.1
2017-Jun-23 19:30N 37°48' W 122°33'3 6.4
2017-Jun-23 19:00N 37°49' W 122°30'3 5.5
2017-Jun-23 18:30N 37°50' W 122°26'3 5.6
2017-Jun-23 18:00N 37°53' W 122°25'2 3.5
2017-Jun-23 17:30N 37°54' W 122°26'1 1.7
2017-Jun-23 17:00N 37°55' W 122°25'1 1.2
2017-Jun-23 16:30N 37°55' W 122°25'0 0.0
2017-Jun-23 16:00N 37°55' W 122°25'0 0.0
2017-Jun-23 15:30N 37°55' W 122°25'0 0.2
2017-Jun-23 14:56N 37°55' W 122°25'0 0.0
2017-Jun-23 14:00N 37°55' W 122°25'0 0.0
2017-Jun-23 13:29N 37°55' W 122°25'0 0.0
2017-Jun-23 12:59N 37°55' W 122°25'0 0.0
2017-Jun-23 12:29N 37°55' W 122°25'0 0.0
2017-Jun-23 11:59N 37°55' W 122°25'0 0.0
2017-Jun-23 11:29N 37°55' W 122°25'0 0.0
2017-Jun-23 10:59N 37°55' W 122°25'0 0.0
2017-Jun-23 10:29N 37°55' W 122°25'0 0.0
2017-Jun-23 09:59N 37°55' W 122°25'0 0.0
2017-Jun-23 09:29N 37°55' W 122°25'0 0.0
2017-Jun-23 08:56N 37°55' W 122°25'0 0.0
2017-Jun-23 08:29N 37°55' W 122°25'0 0.0
2017-Jun-23 07:59N 37°55' W 122°25'0 0.0
2017-Jun-23 07:29N 37°55' W 122°25'0 0.0
2017-Jun-23 06:56N 37°55' W 122°25'0 0.0
2017-Jun-23 06:29N 37°55' W 122°25'0 0.0
2017-Jun-23 05:59N 37°55' W 122°25'0 0.0
2017-Jun-23 05:29N 37°55' W 122°25'0 0.0
2017-Jun-23 04:56N 37°55' W 122°25'0 0.0
2017-Jun-23 04:26N 37°55' W 122°25'0 0.0
2017-Jun-23 03:59N 37°55' W 122°25'0 0.0
2017-Jun-23 03:29N 37°55' W 122°25'0 0.0
2017-Jun-23 02:59N 37°55' W 122°25'0 0.0
2017-Jun-23 02:29N 37°55' W 122°25'0 0.0
2017-Jun-23 01:59N 37°55' W 122°25'0 0.0
2017-Jun-23 01:29N 37°55' W 122°25'0 0.0
2017-Jun-23 01:00N 37°55' W 122°25'0 0.2
2017-Jun-23 00:30N 37°55' W 122°25'1 1.2
2017-Jun-23 00:00N 37°55' W 122°25'0 0.7
2017-Jun-22 23:30N 37°54' W 122°25'0 0.0
2017-Jun-22 23:00N 37°54' W 122°25'1 1.2
2017-Jun-22 22:31N 37°54' W 122°24'2 3.1
2017-Jun-22 21:59N 37°54' W 122°22'0 0.7
2017-Jun-22 21:26N 37°55' W 122°22'0 0.0
2017-Jun-22 20:59N 37°55' W 122°22'0 0.0
2017-Jun-22 17:41N 37°55' W 122°22'0 0.0
2017-Jun-22 17:14N 37°55' W 122°22'0 0.0
2017-Jun-22 16:59N 37°55' W 122°22'0 0.0
2017-Jun-22 16:23N 37°55' W 122°22'0 0.0
2017-Jun-22 15:56N 37°55' W 122°22'0 0.0
2017-Jun-22 15:26N 37°55' W 122°22'0 0.0
2017-Jun-22 14:59N 37°55' W 122°22'0 0.0
2017-Jun-22 14:29N 37°55' W 122°22'0 0.0
2017-Jun-22 13:20N 37°55' W 122°22'0 0.0
2017-Jun-22 12:56N 37°55' W 122°22'0 0.0
2017-Jun-22 12:26N 37°55' W 122°22'0 0.0
2017-Jun-22 11:59N 37°55' W 122°22'0 0.0
2017-Jun-22 11:29N 37°55' W 122°22'0 0.0
2017-Jun-22 10:56N 37°55' W 122°22'0 0.0
2017-Jun-22 10:29N 37°55' W 122°22'0 0.0
2017-Jun-22 09:59N 37°55' W 122°22'0 0.0
2017-Jun-22 09:29N 37°55' W 122°22'0 0.0
2017-Jun-22 08:59N 37°55' W 122°22'0 0.0
2017-Jun-22 08:29N 37°55' W 122°22'0 0.0
2017-Jun-22 07:59N 37°55' W 122°22'0 0.0
2017-Jun-22 04:02N 37°55' W 122°22'0 0.0
2017-Jun-22 03:50N 37°55' W 122°22'0 0.0
2017-Jun-22 02:38N 37°55' W 122°22'0 0.0
2017-Jun-22 02:17N 37°55' W 122°22'0 0.0
2017-Jun-22 01:56N 37°55' W 122°22'0 0.0
2017-Jun-22 01:29N 37°55' W 122°22'0 0.0
2017-Jun-22 00:53N 37°55' W 122°22'0 0.0
2017-Jun-22 00:23N 37°55' W 122°22'0 0.0
2017-Jun-21 23:59N 37°55' W 122°22'0 0.0
2017-Jun-21 23:11N 37°55' W 122°22'0 0.0
2017-Jun-21 22:47N 37°55' W 122°22'0 0.0
2017-Jun-21 22:23N 37°55' W 122°22'0 0.0
2017-Jun-21 21:59N 37°55' W 122°22'0 0.0
2017-Jun-21 21:29N 37°55' W 122°22'0 0.0
2017-Jun-21 20:59N 37°55' W 122°22'0 0.0
2017-Jun-21 20:29N 37°55' W 122°22'0 0.0
2017-Jun-21 19:53N 37°55' W 122°22'0 0.0
2017-Jun-21 19:26N 37°55' W 122°22'0 0.0
2017-Jun-21 18:56N 37°55' W 122°22'0 0.0
2017-Jun-21 18:17N 37°55' W 122°22'0 0.0
2017-Jun-21 17:56N 37°55' W 122°22'0 0.0
2017-Jun-21 17:26N 37°55' W 122°22'0 0.0
2017-Jun-21 15:05N 37°55' W 122°22'0 0.0
2017-Jun-21 14:53N 37°55' W 122°22'0 0.0
2017-Jun-21 14:29N 37°55' W 122°22'0 0.0
2017-Jun-21 13:23N 37°55' W 122°22'0 0.0
2017-Jun-21 12:59N 37°55' W 122°22'0 0.0
2017-Jun-21 11:59N 37°55' W 122°22'0 0.0
2017-Jun-21 11:23N 37°55' W 122°22'0 0.0
2017-Jun-21 10:17N 37°55' W 122°22'0 0.0
2017-Jun-21 09:41N 37°55' W 122°22'0 0.0
2017-Jun-21 09:29N 37°55' W 122°22'0 0.0
2017-Jun-21 06:47N 37°55' W 122°22'0 0.0
2017-Jun-21 06:20N 37°55' W 122°22'0 0.0
2017-Jun-21 05:53N 37°55' W 122°22'0 0.0
2017-Jun-21 05:29N 37°55' W 122°22'0 0.0
2017-Jun-21 04:59N 37°55' W 122°22'0 0.0
2017-Jun-21 04:29N 37°55' W 122°22'0 0.0
2017-Jun-21 03:59N 37°55' W 122°22'0 0.0
2017-Jun-21 03:14N 37°55' W 122°22'0 0.0
2017-Jun-21 02:56N 37°55' W 122°22'0 0.0
2017-Jun-21 02:29N 37°55' W 122°22'0 0.0
2017-Jun-21 00:29N 37°55' W 122°22'0 0.0
2017-Jun-20 23:50N 37°55' W 122°22'0 0.0
2017-Jun-20 23:29N 37°55' W 122°22'0 0.0
2017-Jun-20 22:59N 37°55' W 122°22'0 0.0
2017-Jun-20 22:29N 37°55' W 122°22'0 0.0
2017-Jun-20 21:59N 37°55' W 122°22'0 0.0
2017-Jun-20 21:26N 37°55' W 122°22'0 0.0
2017-Jun-20 20:56N 37°55' W 122°22'0 0.0
2017-Jun-20 20:23N 37°55' W 122°22'0 0.0
2017-Jun-20 19:44N 37°55' W 122°22'0 0.0
2017-Jun-20 13:59N 37°55' W 122°22'0 0.0
2017-Jun-20 13:29N 37°55' W 122°22'0 0.0
2017-Jun-20 12:59N 37°55' W 122°22'0 0.0
2017-Jun-20 12:29N 37°55' W 122°22'0 0.0
2017-Jun-20 11:59N 37°55' W 122°22'0 0.0
2017-Jun-20 11:29N 37°55' W 122°22'0 0.0
2017-Jun-20 10:59N 37°55' W 122°22'0 0.0
2017-Jun-20 10:29N 37°55' W 122°22'0 0.0
2017-Jun-20 09:59N 37°55' W 122°22'0 0.0
2017-Jun-20 09:29N 37°55' W 122°22'0 0.0
2017-Jun-20 08:59N 37°55' W 122°22'0 0.0
2017-Jun-20 08:29N 37°55' W 122°22'0 0.0
2017-Jun-20 07:56N 37°55' W 122°22'0 0.0
2017-Jun-20 07:23N 37°55' W 122°22'0 0.0
2017-Jun-20 06:56N 37°55' W 122°22'0 0.0
2017-Jun-20 06:26N 37°55' W 122°22'0 0.0
2017-Jun-20 05:59N 37°55' W 122°22'0 0.0
2017-Jun-20 05:20N 37°55' W 122°22'0 0.0
2017-Jun-20 04:59N 37°55' W 122°22'0 0.0
2017-Jun-20 04:23N 37°55' W 122°22'0 0.0
2017-Jun-20 03:59N 37°55' W 122°22'0 0.0
2017-Jun-20 03:28N 37°55' W 122°22'0 0.0
2017-Jun-20 03:01N 37°55' W 122°22'0 0.0
2017-Jun-20 02:31N 37°55' W 122°22'0 0.0
2017-Jun-20 02:01N 37°55' W 122°22'1 1.3
2017-Jun-20 01:31N 37°54' W 122°22'3 5.6
2017-Jun-20 01:00N 37°55' W 122°26'0 0.4
2017-Jun-20 00:31N 37°54' W 122°26'4 7.9
2017-Jun-20 00:01N 37°51' W 122°24'5 9.7
2017-Jun-19 23:31N 37°49' W 122°30'5 9.4
2017-Jun-19 23:01N 37°46' W 122°35'4 8.7
2017-Jun-19 22:30N 37°46' W 122°40'3 6.2
2017-Jun-19 22:01N 37°46' W 122°44'4 7.0
2017-Jun-19 21:30N 37°47' W 122°49'3 6.9
2017-Jun-19 21:00N 37°49' W 122°52'3 5.8
2017-Jun-19 20:30N 37°50' W 122°56'11 8.6
2017-Jun-19 19:16N 37°55' W 123°07'2 8.4
2017-Jun-19 18:58N 37°57' W 123°10'4 8.4
2017-Jun-19 18:30N 37°59' W 123°13'4 8.8
2017-Jun-19 18:01N 38°03' W 123°17'5 8.8
2017-Jun-19 17:30N 38°06' W 123°21'4 8.8
2017-Jun-19 17:01N 38°09' W 123°25'4 8.5
2017-Jun-19 16:30N 38°11' W 123°30'8 8.3
2017-Jun-19 15:31N 38°14' W 123°39'4 7.9
2017-Jun-19 14:59N 38°17' W 123°43'315 8.4
2017-Jun-18 01:32N 43°28' W 124°55'0 8.7
2017-Jun-18 01:29N 43°28' W 124°55'5 8.6
2017-Jun-18 00:58N 43°32' W 124°53'6 8.5
2017-Jun-18 00:19N 43°38' W 124°51'19 8.5
2017-Jun-17 22:02N 43°56' W 124°43'0 8.0
2017-Jun-17 22:01N 43°56' W 124°43'9 8.5
2017-Jun-17 21:00N 44°05' W 124°42'4 8.9
2017-Jun-17 20:30N 44°09' W 124°42'11 8.8
2017-Jun-17 19:13N 44°20' W 124°41'3 9.0
2017-Jun-17 18:50N 44°24' W 124°40'3 9.0
2017-Jun-17 18:28N 44°27' W 124°40'6 8.9
2017-Jun-17 17:49N 44°33' W 124°41'30 8.9
2017-Jun-17 14:27N 45°03' W 124°38'9 9.0
2017-Jun-17 13:30N 45°11' W 124°37'4 9.0
2017-Jun-17 13:00N 45°16' W 124°36'5 9.0
2017-Jun-17 12:30N 45°20' W 124°36'4 8.9
2017-Jun-17 12:00N 45°24' W 124°35'4 8.8
2017-Jun-17 11:31N 45°29' W 124°34'5 9.0
2017-Jun-17 11:00N 45°33' W 124°34'5 9.3
2017-Jun-17 10:31N 45°38' W 124°34'5 9.0
2017-Jun-17 10:01N 45°42' W 124°33'4 8.8
2017-Jun-17 09:31N 45°47' W 124°33'4 8.7
2017-Jun-17 09:00N 45°51' W 124°32'4 8.5
2017-Jun-17 08:30N 45°55' W 124°31'4 8.1
2017-Jun-17 08:01N 45°59' W 124°29'4 8.1
2017-Jun-17 07:31N 46°02' W 124°26'4 8.4
2017-Jun-17 07:00N 46°05' W 124°21'4 8.4
2017-Jun-17 06:31N 46°08' W 124°17'4 7.8
2017-Jun-17 06:00N 46°11' W 124°13'4 7.5
2017-Jun-17 05:31N 46°13' W 124°09'4 8.6
2017-Jun-17 05:01N 46°16' W 124°04'611.1
2017-Jun-17 04:31N 46°13' W 123°57'510.5
2017-Jun-17 04:01N 46°12' W 123°49'4 8.5
2017-Jun-17 03:31N 46°14' W 123°44'510.2
2017-Jun-17 03:01N 46°15' W 123°37'510.5
2017-Jun-17 02:31N 46°16' W 123°29'5 9.7
2017-Jun-17 02:01N 46°12' W 123°26'5 9.9
2017-Jun-17 01:30N 46°09' W 123°21'611.8
2017-Jun-17 01:01N 46°10' W 123°13'611.3
2017-Jun-17 00:31N 46°10' W 123°05'612.8
2017-Jun-17 00:01N 46°06' W 122°57'612.2
2017-Jun-16 23:31N 46°01' W 122°52'612.2
2017-Jun-16 23:01N 45°55' W 122°48'612.2
2017-Jun-16 22:31N 45°49' W 122°48'612.1
2017-Jun-16 22:01N 45°44' W 122°46'510.4
2017-Jun-16 21:31N 45°38' W 122°47'3 7.0
2017-Jun-16 21:01N 45°35' W 122°46'1 2.8
2017-Jun-16 20:31N 45°34' W 122°44'0 0.4
2017-Jun-16 20:01N 45°34' W 122°44'0 0.0
2017-Jun-16 19:31N 45°34' W 122°44'2 3.0
2017-Jun-16 18:56N 45°33' W 122°42'0 0.0
2017-Jun-16 18:27N 45°33' W 122°42'0 0.0
2017-Jun-16 18:00N 45°33' W 122°42'0 0.0
2017-Jun-16 17:30N 45°33' W 122°42'0 0.0
2017-Jun-16 17:00N 45°33' W 122°42'0 0.0
2017-Jun-16 16:27N 45°33' W 122°42'0 0.0
2017-Jun-16 15:51N 45°33' W 122°42'0 0.0
2017-Jun-16 15:30N 45°33' W 122°42'0 0.0
2017-Jun-16 15:00N 45°33' W 122°42'0 0.0
2017-Jun-16 14:00N 45°33' W 122°42'0 0.0
2017-Jun-16 13:30N 45°33' W 122°42'0 0.0
2017-Jun-16 13:00N 45°33' W 122°42'0 0.0
2017-Jun-16 12:30N 45°33' W 122°42'0 0.0
2017-Jun-16 12:00N 45°33' W 122°42'0 0.0
2017-Jun-16 11:30N 45°33' W 122°42'0 0.0
2017-Jun-16 11:00N 45°33' W 122°42'0 0.0
2017-Jun-16 10:30N 45°33' W 122°42'0 0.0
2017-Jun-16 10:00N 45°33' W 122°42'0 0.0
2017-Jun-16 09:30N 45°33' W 122°42'0 0.0
2017-Jun-16 09:00N 45°33' W 122°42'0 0.0
2017-Jun-16 08:30N 45°33' W 122°42'0 0.0
2017-Jun-16 07:57N 45°33' W 122°42'0 0.0
2017-Jun-16 07:30N 45°33' W 122°42'0 0.0
2017-Jun-16 07:00N 45°33' W 122°42'0 0.0
2017-Jun-16 06:30N 45°33' W 122°42'0 0.0
2017-Jun-16 06:00N 45°33' W 122°42'0 0.0
2017-Jun-16 05:27N 45°33' W 122°42'0 0.0
2017-Jun-16 04:51N 45°33' W 122°42'0 0.0
2017-Jun-16 04:30N 45°33' W 122°42'0 0.0
2017-Jun-16 04:00N 45°33' W 122°42'0 0.0
2017-Jun-16 03:30N 45°33' W 122°42'0 0.0
2017-Jun-16 03:00N 45°33' W 122°42'0 0.0
2017-Jun-16 02:27N 45°33' W 122°42'0 0.0
2017-Jun-16 02:00N 45°33' W 122°42'0 0.0
2017-Jun-16 01:30N 45°33' W 122°42'0 0.0
2017-Jun-16 01:00N 45°33' W 122°42'0 0.0
2017-Jun-16 00:27N 45°33' W 122°42'0 0.0
2017-Jun-16 00:00N 45°33' W 122°42'0 0.0
2017-Jun-15 23:27N 45°33' W 122°42'0 0.0
2017-Jun-15 23:00N 45°33' W 122°42'0 0.0
2017-Jun-15 22:24N 45°33' W 122°42'0 0.0
2017-Jun-15 21:51N 45°33' W 122°42'0 0.0
2017-Jun-15 21:30N 45°33' W 122°42'0 0.0
2017-Jun-15 21:00N 45°33' W 122°42'0 0.0
2017-Jun-15 20:30N 45°33' W 122°42'0 0.0
2017-Jun-15 20:00N 45°33' W 122°42'0 0.0
2017-Jun-15 19:30N 45°33' W 122°42'0 0.0
2017-Jun-15 18:57N 45°33' W 122°42'0 0.0
2017-Jun-15 18:30N 45°33' W 122°42'0 0.0
2017-Jun-15 18:00N 45°33' W 122°42'2 3.4
2017-Jun-15 17:31N 45°34' W 122°44'0 0.2
2017-Jun-15 17:01N 45°34' W 122°44'1 2.6
2017-Jun-15 16:31N 45°35' W 122°46'3 5.3
2017-Jun-15 16:00N 45°37' W 122°47'3 6.5
2017-Jun-15 15:30N 45°40' W 122°46'3 6.8
2017-Jun-15 15:01N 45°44' W 122°46'7 6.6
2017-Jun-15 14:00N 45°50' W 122°47'3 6.4
2017-Jun-15 13:31N 45°53' W 122°48'3 6.6
2017-Jun-15 13:01N 45°57' W 122°48'3 6.6
2017-Jun-15 12:31N 45°60' W 122°51'3 6.6
2017-Jun-15 12:00N 46°03' W 122°53'3 6.4
2017-Jun-15 11:30N 46°05' W 122°55'3 6.6
2017-Jun-15 11:01N 46°07' W 122°59'3 6.5
2017-Jun-15 10:31N 46°09' W 123°03'3 6.7
2017-Jun-15 10:01N 46°11' W 123°07'3 6.3
2017-Jun-15 09:30N 46°11' W 123°11'3 6.4
2017-Jun-15 09:01N 46°09' W 123°15'3 6.6
2017-Jun-15 08:31N 46°09' W 123°20'3 6.2
2017-Jun-15 08:01N 46°10' W 123°24'3 6.2
2017-Jun-15 07:31N 46°13' W 123°26'3 6.4
2017-Jun-15 07:00N 46°16' W 123°27'3 6.5
2017-Jun-15 06:31N 46°16' W 123°32'3 6.9
2017-Jun-15 06:01N 46°15' W 123°37'3 6.8
2017-Jun-15 05:31N 46°15' W 123°42'4 7.1
2017-Jun-15 05:01N 46°13' W 123°46'3 5.2
2017-Jun-15 04:31N 46°12' W 123°50'3 5.1
2017-Jun-15 04:01N 46°11' W 123°53'2 4.7
2017-Jun-15 03:31N 46°12' W 123°56'3 5.2
2017-Jun-15 03:01N 46°14' W 123°59'2 4.7
2017-Jun-15 02:30N 46°15' W 124°02'3 5.6
2017-Jun-15 02:01N 46°15' W 124°06'3 6.0
2017-Jun-15 01:31N 46°12' W 124°09'3 6.5
2017-Jun-15 01:00N 46°10' W 124°12'3 5.2
2017-Jun-15 00:31N 46°08' W 124°15'4 7.2
2017-Jun-15 00:01N 46°06' W 124°19'4 7.4
2017-Jun-14 23:31N 46°03' W 124°22'4 7.2
2017-Jun-14 23:01N 46°01' W 124°26'4 7.4
2017-Jun-14 22:31N 45°58' W 124°30'4 7.1
2017-Jun-14 22:01N 45°55' W 124°32'4 7.3
2017-Jun-14 21:31N 45°51' W 124°32'4 7.8
2017-Jun-14 21:00N 45°47' W 124°33'4 8.0
2017-Jun-14 20:30N 45°43' W 124°33'4 8.3
2017-Jun-14 20:01N 45°39' W 124°34'4 8.1
2017-Jun-14 19:31N 45°35' W 124°35'4 8.3
2017-Jun-14 19:01N 45°31' W 124°35'4 8.3
2017-Jun-14 18:31N 45°27' W 124°36'4 8.6
2017-Jun-14 18:00N 45°23' W 124°36'4 8.6
2017-Jun-14 17:31N 45°18' W 124°37'  
Track history (hours):
 
Tides and Currents Weather Stations Pressure Air Temp Water Temp Dewpoint Dewpoint Depression Visibility Wind Speed Wind Dir Waves Ship Positions

Tecumseh

Owner: Sause Bros. Inc., COOS BAY, OR. More information available from US FCC via Universal Licensing System and Coast Guard Vessel Documentation Center.

Last reported at 2017-Jun-24 13:30 UTC. Time now 2017-Jun-24 14:01 UTC.
Position N 35°49' W 122°13'.

Length 90 m; draft 4.8 m.

Type: Tow > 200 m length. MMSI: 367133160.

Date/timePositionNaut miles runAvg speedWind from/ knotsBaromVisibWave heightAir tempDewpointWater temp
2017-Jun-24 13:30N 35°49' W 122°13'4 8.3
2017-Jun-24 13:00N 35°53' W 122°15'4 8.5
2017-Jun-24 12:30N 35°57' W 122°17'4 8.4
2017-Jun-24 12:00N 36°00' W 122°20'4 8.1
2017-Jun-24 11:30N 36°04' W 122°22'4 8.1
2017-Jun-24 11:00N 36°08' W 122°25'4 8.1
2017-Jun-24 10:30N 36°11' W 122°27'4 8.0
2017-Jun-24 10:00N 36°15' W 122°29'4 7.9
2017-Jun-24 09:30N 36°18' W 122°32'6 7.9
2017-Jun-24 08:46N 36°24' W 122°35'2 7.7
2017-Jun-24 08:30N 36°25' W 122°36'4 7.8
2017-Jun-24 08:00N 36°29' W 122°38'4 7.7
2017-Jun-24 07:30N 36°33' W 122°40'4 7.8
2017-Jun-24 07:00N 36°36' W 122°42'4 7.8
2017-Jun-24 06:30N 36°40' W 122°44'4 7.8
2017-Jun-24 06:00N 36°43' W 122°46'4 7.9
2017-Jun-24 05:30N 36°47' W 122°48'4 8.0
2017-Jun-24 05:00N 36°50' W 122°50'4 7.6
2017-Jun-24 04:30N 36°54' W 122°52'4 7.3
2017-Jun-24 04:00N 36°57' W 122°54'4 7.3
2017-Jun-24 03:30N 37°00' W 122°56'4 7.1
2017-Jun-24 03:00N 37°04' W 122°57'4 7.5
2017-Jun-24 02:30N 37°07' W 122°59'4 7.6
2017-Jun-24 02:00N 37°11' W 123°01'4 8.1
2017-Jun-24 01:30N 37°15' W 123°02'4 8.4
2017-Jun-24 01:00N 37°19' W 123°03'4 8.6
2017-Jun-24 00:30N 37°23' W 123°04'4 8.4
2017-Jun-24 00:00N 37°27' W 123°04'4 8.5
2017-Jun-23 23:30N 37°31' W 123°04'4 7.2
2017-Jun-23 22:59N 37°35' W 123°03'4 7.9
2017-Jun-23 22:26N 37°37' W 122°58'3 7.6
2017-Jun-23 22:00N 37°39' W 122°55'4 7.9
2017-Jun-23 21:30N 37°41' W 122°50'4 7.9
2017-Jun-23 21:00N 37°43' W 122°46'4 7.7
2017-Jun-23 20:30N 37°44' W 122°41'4 7.5
2017-Jun-23 20:00N 37°46' W 122°37'3 7.1
2017-Jun-23 19:30N 37°48' W 122°33'3 6.4
2017-Jun-23 19:00N 37°49' W 122°30'3 5.5
2017-Jun-23 18:30N 37°50' W 122°26'3 5.6
2017-Jun-23 18:00N 37°53' W 122°25'2 3.5
2017-Jun-23 17:30N 37°54' W 122°26'1 1.7
2017-Jun-23 17:00N 37°55' W 122°25'1 1.2
2017-Jun-23 16:30N 37°55' W 122°25'0 0.0
2017-Jun-23 16:00N 37°55' W 122°25'0 0.0
2017-Jun-23 15:30N 37°55' W 122°25'0 0.2
2017-Jun-23 14:56N 37°55' W 122°25'0 0.0
2017-Jun-23 14:00N 37°55' W 122°25'0 0.0
2017-Jun-23 13:29N 37°55' W 122°25'0 0.0
2017-Jun-23 12:59N 37°55' W 122°25'0 0.0
2017-Jun-23 12:29N 37°55' W 122°25'0 0.0
2017-Jun-23 11:59N 37°55' W 122°25'0 0.0
2017-Jun-23 11:29N 37°55' W 122°25'0 0.0
2017-Jun-23 10:59N 37°55' W 122°25'0 0.0
2017-Jun-23 10:29N 37°55' W 122°25'0 0.0
2017-Jun-23 09:59N 37°55' W 122°25'0 0.0
2017-Jun-23 09:29N 37°55' W 122°25'0 0.0
2017-Jun-23 08:56N 37°55' W 122°25'0 0.0
2017-Jun-23 08:29N 37°55' W 122°25'0 0.0
2017-Jun-23 07:59N 37°55' W 122°25'0 0.0
2017-Jun-23 07:29N 37°55' W 122°25'0 0.0
2017-Jun-23 06:56N 37°55' W 122°25'0 0.0
2017-Jun-23 06:29N 37°55' W 122°25'0 0.0
2017-Jun-23 05:59N 37°55' W 122°25'0 0.0
2017-Jun-23 05:29N 37°55' W 122°25'0 0.0
2017-Jun-23 04:56N 37°55' W 122°25'0 0.0
2017-Jun-23 04:26N 37°55' W 122°25'0 0.0
2017-Jun-23 03:59N 37°55' W 122°25'0 0.0
2017-Jun-23 03:29N 37°55' W 122°25'0 0.0
2017-Jun-23 02:59N 37°55' W 122°25'0 0.0
2017-Jun-23 02:29N 37°55' W 122°25'0 0.0
2017-Jun-23 01:59N 37°55' W 122°25'0 0.0
2017-Jun-23 01:29N 37°55' W 122°25'0 0.0
2017-Jun-23 01:00N 37°55' W 122°25'0 0.2
2017-Jun-23 00:30N 37°55' W 122°25'1 1.2
2017-Jun-23 00:00N 37°55' W 122°25'0 0.7
2017-Jun-22 23:30N 37°54' W 122°25'0 0.0
2017-Jun-22 23:00N 37°54' W 122°25'1 1.2
2017-Jun-22 22:31N 37°54' W 122°24'2 3.1
2017-Jun-22 21:59N 37°54' W 122°22'0 0.7
2017-Jun-22 21:26N 37°55' W 122°22'0 0.0
2017-Jun-22 20:59N 37°55' W 122°22'0 0.0
2017-Jun-22 17:41N 37°55' W 122°22'0 0.0
2017-Jun-22 17:14N 37°55' W 122°22'0 0.0
2017-Jun-22 16:59N 37°55' W 122°22'0 0.0
2017-Jun-22 16:23N 37°55' W 122°22'0 0.0
2017-Jun-22 15:56N 37°55' W 122°22'0 0.0
2017-Jun-22 15:26N 37°55' W 122°22'0 0.0
2017-Jun-22 14:59N 37°55' W 122°22'0 0.0
2017-Jun-22 14:29N 37°55' W 122°22'0 0.0
2017-Jun-22 13:20N 37°55' W 122°22'0 0.0
2017-Jun-22 12:56N 37°55' W 122°22'0 0.0
2017-Jun-22 12:26N 37°55' W 122°22'0 0.0
2017-Jun-22 11:59N 37°55' W 122°22'0 0.0
2017-Jun-22 11:29N 37°55' W 122°22'0 0.0
2017-Jun-22 10:56N 37°55' W 122°22'0 0.0
2017-Jun-22 10:29N 37°55' W 122°22'0 0.0
2017-Jun-22 09:59N 37°55' W 122°22'0 0.0
2017-Jun-22 09:29N 37°55' W 122°22'0 0.0
2017-Jun-22 08:59N 37°55' W 122°22'0 0.0
2017-Jun-22 08:29N 37°55' W 122°22'0 0.0
2017-Jun-22 07:59N 37°55' W 122°22'0 0.0
2017-Jun-22 04:02N 37°55' W 122°22'0 0.0
2017-Jun-22 03:50N 37°55' W 122°22'0 0.0
2017-Jun-22 02:38N 37°55' W 122°22'0 0.0
2017-Jun-22 02:17N 37°55' W 122°22'0 0.0
2017-Jun-22 01:56N 37°55' W 122°22'0 0.0
2017-Jun-22 01:29N 37°55' W 122°22'0 0.0
2017-Jun-22 00:53N 37°55' W 122°22'0 0.0
2017-Jun-22 00:23N 37°55' W 122°22'0 0.0
2017-Jun-21 23:59N 37°55' W 122°22'0 0.0
2017-Jun-21 23:11N 37°55' W 122°22'0 0.0
2017-Jun-21 22:47N 37°55' W 122°22'0 0.0
2017-Jun-21 22:23N 37°55' W 122°22'0 0.0
2017-Jun-21 21:59N 37°55' W 122°22'0 0.0
2017-Jun-21 21:29N 37°55' W 122°22'0 0.0
2017-Jun-21 20:59N 37°55' W 122°22'0 0.0
2017-Jun-21 20:29N 37°55' W 122°22'0 0.0
2017-Jun-21 19:53N 37°55' W 122°22'0 0.0
2017-Jun-21 19:26N 37°55' W 122°22'0 0.0
2017-Jun-21 18:56N 37°55' W 122°22'0 0.0
2017-Jun-21 18:17N 37°55' W 122°22'0 0.0
2017-Jun-21 17:56N 37°55' W 122°22'0 0.0
2017-Jun-21 17:26N 37°55' W 122°22'0 0.0
2017-Jun-21 15:05N 37°55' W 122°22'0 0.0
2017-Jun-21 14:53N 37°55' W 122°22'0 0.0
2017-Jun-21 14:29N 37°55' W 122°22'0 0.0
2017-Jun-21 13:23N 37°55' W 122°22'0 0.0
2017-Jun-21 12:59N 37°55' W 122°22'0 0.0
2017-Jun-21 11:59N 37°55' W 122°22'0 0.0
2017-Jun-21 11:23N 37°55' W 122°22'0 0.0
2017-Jun-21 10:17N 37°55' W 122°22'0 0.0
2017-Jun-21 09:41N 37°55' W 122°22'0 0.0
2017-Jun-21 09:29N 37°55' W 122°22'0 0.0
2017-Jun-21 06:47N 37°55' W 122°22'0 0.0
2017-Jun-21 06:20N 37°55' W 122°22'0 0.0
2017-Jun-21 05:53N 37°55' W 122°22'0 0.0
2017-Jun-21 05:29N 37°55' W 122°22'0 0.0
2017-Jun-21 04:59N 37°55' W 122°22'0 0.0
2017-Jun-21 04:29N 37°55' W 122°22'0 0.0
2017-Jun-21 03:59N 37°55' W 122°22'0 0.0
2017-Jun-21 03:14N 37°55' W 122°22'0 0.0
2017-Jun-21 02:56N 37°55' W 122°22'0 0.0
2017-Jun-21 02:29N 37°55' W 122°22'0 0.0
2017-Jun-21 00:29N 37°55' W 122°22'0 0.0
2017-Jun-20 23:50N 37°55' W 122°22'0 0.0
2017-Jun-20 23:29N 37°55' W 122°22'0 0.0
2017-Jun-20 22:59N 37°55' W 122°22'0 0.0
2017-Jun-20 22:29N 37°55' W 122°22'0 0.0
2017-Jun-20 21:59N 37°55' W 122°22'0 0.0
2017-Jun-20 21:26N 37°55' W 122°22'0 0.0
2017-Jun-20 20:56N 37°55' W 122°22'0 0.0
2017-Jun-20 20:23N 37°55' W 122°22'0 0.0
2017-Jun-20 19:44N 37°55' W 122°22'0 0.0
2017-Jun-20 13:59N 37°55' W 122°22'0 0.0
2017-Jun-20 13:29N 37°55' W 122°22'0 0.0
2017-Jun-20 12:59N 37°55' W 122°22'0 0.0
2017-Jun-20 12:29N 37°55' W 122°22'0 0.0
2017-Jun-20 11:59N 37°55' W 122°22'0 0.0
2017-Jun-20 11:29N 37°55' W 122°22'0 0.0
2017-Jun-20 10:59N 37°55' W 122°22'0 0.0
2017-Jun-20 10:29N 37°55' W 122°22'0 0.0
2017-Jun-20 09:59N 37°55' W 122°22'0 0.0
2017-Jun-20 09:29N 37°55' W 122°22'0 0.0
2017-Jun-20 08:59N 37°55' W 122°22'0 0.0
2017-Jun-20 08:29N 37°55' W 122°22'0 0.0
2017-Jun-20 07:56N 37°55' W 122°22'0 0.0
2017-Jun-20 07:23N 37°55' W 122°22'0 0.0
2017-Jun-20 06:56N 37°55' W 122°22'0 0.0
2017-Jun-20 06:26N 37°55' W 122°22'0 0.0
2017-Jun-20 05:59N 37°55' W 122°22'0 0.0
2017-Jun-20 05:20N 37°55' W 122°22'0 0.0
2017-Jun-20 04:59N 37°55' W 122°22'0 0.0
2017-Jun-20 04:23N 37°55' W 122°22'0 0.0
2017-Jun-20 03:59N 37°55' W 122°22'0 0.0
2017-Jun-20 03:28N 37°55' W 122°22'0 0.0
2017-Jun-20 03:01N 37°55' W 122°22'0 0.0
2017-Jun-20 02:31N 37°55' W 122°22'0 0.0
2017-Jun-20 02:01N 37°55' W 122°22'1 1.3
2017-Jun-20 01:31N 37°54' W 122°22'3 5.6
2017-Jun-20 01:00N 37°55' W 122°26'0 0.4
2017-Jun-20 00:31N 37°54' W 122°26'4 7.9
2017-Jun-20 00:01N 37°51' W 122°24'5 9.7
2017-Jun-19 23:31N 37°49' W 122°30'5 9.4
2017-Jun-19 23:01N 37°46' W 122°35'4 8.7
2017-Jun-19 22:30N 37°46' W 122°40'3 6.2
2017-Jun-19 22:01N 37°46' W 122°44'4 7.0
2017-Jun-19 21:30N 37°47' W 122°49'3 6.9
2017-Jun-19 21:00N 37°49' W 122°52'3 5.8
2017-Jun-19 20:30N 37°50' W 122°56'11 8.6
2017-Jun-19 19:16N 37°55' W 123°07'2 8.4
2017-Jun-19 18:58N 37°57' W 123°10'4 8.4
2017-Jun-19 18:30N 37°59' W 123°13'4 8.8
2017-Jun-19 18:01N 38°03' W 123°17'5 8.8
2017-Jun-19 17:30N 38°06' W 123°21'4 8.8
2017-Jun-19 17:01N 38°09' W 123°25'4 8.5
2017-Jun-19 16:30N 38°11' W 123°30'8 8.3
2017-Jun-19 15:31N 38°14' W 123°39'4 7.9
2017-Jun-19 14:59N 38°17' W 123°43'315 8.4
2017-Jun-18 01:32N 43°28' W 124°55'0 8.7
2017-Jun-18 01:29N 43°28' W 124°55'5 8.6
2017-Jun-18 00:58N 43°32' W 124°53'6 8.5
2017-Jun-18 00:19N 43°38' W 124°51'19 8.5
2017-Jun-17 22:02N 43°56' W 124°43'0 8.0
2017-Jun-17 22:01N 43°56' W 124°43'9 8.5
2017-Jun-17 21:00N 44°05' W 124°42'4 8.9
2017-Jun-17 20:30N 44°09' W 124°42'11 8.8
2017-Jun-17 19:13N 44°20' W 124°41'3 9.0
2017-Jun-17 18:50N 44°24' W 124°40'3 9.0
2017-Jun-17 18:28N 44°27' W 124°40'6 8.9
2017-Jun-17 17:49N 44°33' W 124°41'30 8.9
2017-Jun-17 14:27N 45°03' W 124°38'9 9.0
2017-Jun-17 13:30N 45°11' W 124°37'4 9.0
2017-Jun-17 13:00N 45°16' W 124°36'5 9.0
2017-Jun-17 12:30N 45°20' W 124°36'4 8.9
2017-Jun-17 12:00N 45°24' W 124°35'4 8.8
2017-Jun-17 11:31N 45°29' W 124°34'5 9.0
2017-Jun-17 11:00N 45°33' W 124°34'5 9.3
2017-Jun-17 10:31N 45°38' W 124°34'5 9.0
2017-Jun-17 10:01N 45°42' W 124°33'4 8.8
2017-Jun-17 09:31N 45°47' W 124°33'4 8.7
2017-Jun-17 09:00N 45°51' W 124°32'4 8.5
2017-Jun-17 08:30N 45°55' W 124°31'4 8.1
2017-Jun-17 08:01N 45°59' W 124°29'4 8.1
2017-Jun-17 07:31N 46°02' W 124°26'4 8.4
2017-Jun-17 07:00N 46°05' W 124°21'4 8.4
2017-Jun-17 06:31N 46°08' W 124°17'4 7.8
2017-Jun-17 06:00N 46°11' W 124°13'4 7.5
2017-Jun-17 05:31N 46°13' W 124°09'4 8.6
2017-Jun-17 05:01N 46°16' W 124°04'611.1
2017-Jun-17 04:31N 46°13' W 123°57'510.5
2017-Jun-17 04:01N 46°12' W 123°49'4 8.5
2017-Jun-17 03:31N 46°14' W 123°44'510.2
2017-Jun-17 03:01N 46°15' W 123°37'510.5
2017-Jun-17 02:31N 46°16' W 123°29'5 9.7
2017-Jun-17 02:01N 46°12' W 123°26'5 9.9
2017-Jun-17 01:30N 46°09' W 123°21'611.8
2017-Jun-17 01:01N 46°10' W 123°13'611.3
2017-Jun-17 00:31N 46°10' W 123°05'612.8
2017-Jun-17 00:01N 46°06' W 122°57'612.2
2017-Jun-16 23:31N 46°01' W 122°52'612.2
2017-Jun-16 23:01N 45°55' W 122°48'612.2
2017-Jun-16 22:31N 45°49' W 122°48'612.1
2017-Jun-16 22:01N 45°44' W 122°46'510.4
2017-Jun-16 21:31N 45°38' W 122°47'3 7.0
2017-Jun-16 21:01N 45°35' W 122°46'1 2.8
2017-Jun-16 20:31N 45°34' W 122°44'0 0.4
2017-Jun-16 20:01N 45°34' W 122°44'0 0.0
2017-Jun-16 19:31N 45°34' W 122°44'2 3.0
2017-Jun-16 18:56N 45°33' W 122°42'0 0.0
2017-Jun-16 18:27N 45°33' W 122°42'0 0.0
2017-Jun-16 18:00N 45°33' W 122°42'0 0.0
2017-Jun-16 17:30N 45°33' W 122°42'0 0.0
2017-Jun-16 17:00N 45°33' W 122°42'0 0.0
2017-Jun-16 16:27N 45°33' W 122°42'0 0.0
2017-Jun-16 15:51N 45°33' W 122°42'0 0.0
2017-Jun-16 15:30N 45°33' W 122°42'0 0.0
2017-Jun-16 15:00N 45°33' W 122°42'0 0.0
2017-Jun-16 14:00N 45°33' W 122°42'0 0.0
2017-Jun-16 13:30N 45°33' W 122°42'0 0.0
2017-Jun-16 13:00N 45°33' W 122°42'0 0.0
2017-Jun-16 12:30N 45°33' W 122°42'0 0.0
2017-Jun-16 12:00N 45°33' W 122°42'0 0.0
2017-Jun-16 11:30N 45°33' W 122°42'0 0.0
2017-Jun-16 11:00N 45°33' W 122°42'0 0.0
2017-Jun-16 10:30N 45°33' W 122°42'0 0.0
2017-Jun-16 10:00N 45°33' W 122°42'0 0.0
2017-Jun-16 09:30N 45°33' W 122°42'0 0.0
2017-Jun-16 09:00N 45°33' W 122°42'0 0.0
2017-Jun-16 08:30N 45°33' W 122°42'0 0.0
2017-Jun-16 07:57N 45°33' W 122°42'0 0.0
2017-Jun-16 07:30N 45°33' W 122°42'0 0.0
2017-Jun-16 07:00N 45°33' W 122°42'0 0.0
2017-Jun-16 06:30N 45°33' W 122°42'0 0.0
2017-Jun-16 06:00N 45°33' W 122°42'0 0.0
2017-Jun-16 05:27N 45°33' W 122°42'0 0.0
2017-Jun-16 04:51N 45°33' W 122°42'0 0.0
2017-Jun-16 04:30N 45°33' W 122°42'0 0.0
2017-Jun-16 04:00N 45°33' W 122°42'0 0.0
2017-Jun-16 03:30N 45°33' W 122°42'0 0.0
2017-Jun-16 03:00N 45°33' W 122°42'0 0.0
2017-Jun-16 02:27N 45°33' W 122°42'0 0.0
2017-Jun-16 02:00N 45°33' W 122°42'0 0.0
2017-Jun-16 01:30N 45°33' W 122°42'0 0.0
2017-Jun-16 01:00N 45°33' W 122°42'0 0.0
2017-Jun-16 00:27N 45°33' W 122°42'0 0.0
2017-Jun-16 00:00N 45°33' W 122°42'0 0.0
2017-Jun-15 23:27N 45°33' W 122°42'0 0.0
2017-Jun-15 23:00N 45°33' W 122°42'0 0.0
2017-Jun-15 22:24N 45°33' W 122°42'0 0.0
2017-Jun-15 21:51N 45°33' W 122°42'0 0.0
2017-Jun-15 21:30N 45°33' W 122°42'0 0.0
2017-Jun-15 21:00N 45°33' W 122°42'0 0.0
2017-Jun-15 20:30N 45°33' W 122°42'0 0.0
2017-Jun-15 20:00N 45°33' W 122°42'0 0.0
2017-Jun-15 19:30N 45°33' W 122°42'0 0.0
2017-Jun-15 18:57N 45°33' W 122°42'0 0.0
2017-Jun-15 18:30N 45°33' W 122°42'0 0.0
2017-Jun-15 18:00N 45°33' W 122°42'2 3.4
2017-Jun-15 17:31N 45°34' W 122°44'0 0.2
2017-Jun-15 17:01N 45°34' W 122°44'1 2.6
2017-Jun-15 16:31N 45°35' W 122°46'3 5.3
2017-Jun-15 16:00N 45°37' W 122°47'3 6.5
2017-Jun-15 15:30N 45°40' W 122°46'3 6.8
2017-Jun-15 15:01N 45°44' W 122°46'7 6.6
2017-Jun-15 14:00N 45°50' W 122°47'3 6.4
2017-Jun-15 13:31N 45°53' W 122°48'3 6.6
2017-Jun-15 13:01N 45°57' W 122°48'3 6.6
2017-Jun-15 12:31N 45°60' W 122°51'3 6.6
2017-Jun-15 12:00N 46°03' W 122°53'3 6.4
2017-Jun-15 11:30N 46°05' W 122°55'3 6.6
2017-Jun-15 11:01N 46°07' W 122°59'3 6.5
2017-Jun-15 10:31N 46°09' W 123°03'3 6.7
2017-Jun-15 10:01N 46°11' W 123°07'3 6.3
2017-Jun-15 09:30N 46°11' W 123°11'3 6.4
2017-Jun-15 09:01N 46°09' W 123°15'3 6.6
2017-Jun-15 08:31N 46°09' W 123°20'3 6.2
2017-Jun-15 08:01N 46°10' W 123°24'3 6.2
2017-Jun-15 07:31N 46°13' W 123°26'3 6.4
2017-Jun-15 07:00N 46°16' W 123°27'3 6.5
2017-Jun-15 06:31N 46°16' W 123°32'3 6.9
2017-Jun-15 06:01N 46°15' W 123°37'3 6.8
2017-Jun-15 05:31N 46°15' W 123°42'4 7.1
2017-Jun-15 05:01N 46°13' W 123°46'3 5.2
2017-Jun-15 04:31N 46°12' W 123°50'3 5.1
2017-Jun-15 04:01N 46°11' W 123°53'2 4.7
2017-Jun-15 03:31N 46°12' W 123°56'3 5.2
2017-Jun-15 03:01N 46°14' W 123°59'2 4.7
2017-Jun-15 02:30N 46°15' W 124°02'3 5.6
2017-Jun-15 02:01N 46°15' W 124°06'3 6.0
2017-Jun-15 01:31N 46°12' W 124°09'3 6.5
2017-Jun-15 01:00N 46°10' W 124°12'3 5.2
2017-Jun-15 00:31N 46°08' W 124°15'4 7.2
2017-Jun-15 00:01N 46°06' W 124°19'4 7.4
2017-Jun-14 23:31N 46°03' W 124°22'4 7.2
2017-Jun-14 23:01N 46°01' W 124°26'4 7.4
2017-Jun-14 22:31N 45°58' W 124°30'4 7.1
2017-Jun-14 22:01N 45°55' W 124°32'4 7.3
2017-Jun-14 21:31N 45°51' W 124°32'4 7.8
2017-Jun-14 21:00N 45°47' W 124°33'4 8.0
2017-Jun-14 20:30N 45°43' W 124°33'4 8.3
2017-Jun-14 20:01N 45°39' W 124°34'4 8.1
2017-Jun-14 19:31N 45°35' W 124°35'4 8.3
2017-Jun-14 19:01N 45°31' W 124°35'4 8.3
2017-Jun-14 18:31N 45°27' W 124°36'4 8.6
2017-Jun-14 18:00N 45°23' W 124°36'4 8.6
2017-Jun-14 17:31N 45°18' W 124°37'  

Dump ship's entire track history